createdAt,value
2022-08-30T00:00:17.107Z,73.5
2022-08-30T00:01:16.559Z,73.5
2022-08-30T00:02:17.526Z,73.5
2022-08-30T00:03:17.861Z,73.7
2022-08-30T00:04:16.462Z,73.7
2022-08-30T00:05:16.894Z,73.7
2022-08-30T00:06:17.308Z,73.7
2022-08-30T00:07:16.727Z,73.8
2022-08-30T00:08:17.166Z,73.7
2022-08-30T00:09:16.620Z,73.7
2022-08-30T00:10:17.037Z,73.7
2022-08-30T00:11:16.488Z,73.7
2022-08-30T00:12:17.155Z,73.7
2022-08-30T00:13:16.978Z,73.6
2022-08-30T00:14:16.515Z,73.7
2022-08-30T00:15:16.953Z,73.7
2022-08-30T00:16:17.539Z,73.8
2022-08-30T00:17:17.019Z,73.8
2022-08-30T00:18:16.467Z,73.8
2022-08-30T00:19:16.913Z,73.8
2022-08-30T00:20:17.342Z,73.9
2022-08-30T00:21:16.758Z,73.8
2022-08-30T00:22:16.760Z,73.7
2022-08-30T00:23:17.617Z,73.8
2022-08-30T00:24:17.139Z,73.8
2022-08-30T00:25:16.562Z,73.8
2022-08-30T00:26:17.064Z,73.8
2022-08-30T00:27:16.529Z,73.7
2022-08-30T00:28:17.136Z,73.6
2022-08-30T00:29:16.613Z,73.7
2022-08-30T00:30:17.115Z,73.8
2022-08-30T00:31:16.679Z,73.8
2022-08-30T00:32:17.014Z,73.8
2022-08-30T00:33:16.750Z,73.8
2022-08-30T00:34:17.233Z,73.8
2022-08-30T00:35:16.675Z,73.8
2022-08-30T00:36:17.096Z,74.2
2022-08-30T00:37:16.509Z,74.2
2022-08-30T00:38:16.957Z,74.1
2022-08-30T00:39:17.370Z,74.2
2022-08-30T00:40:16.932Z,74.3
2022-08-30T00:41:17.393Z,74.2
2022-08-30T00:42:16.875Z,74.2
2022-08-30T00:43:19.597Z,74.2
2022-08-30T00:44:17.097Z,74.3
2022-08-30T00:45:16.584Z,74.2
2022-08-30T00:46:17.582Z,74.3
2022-08-30T00:47:17.098Z,74.3
2022-08-30T00:48:16.509Z,74.3
2022-08-30T00:49:16.928Z,74.3
2022-08-30T00:50:17.350Z,74.3
2022-08-30T00:51:16.766Z,74.3
2022-08-30T00:52:17.123Z,74.3
2022-08-30T00:53:16.906Z,74.3
2022-08-30T00:54:17.444Z,74.4
2022-08-30T00:55:16.957Z,74.4
2022-08-30T00:56:17.436Z,74.4
2022-08-30T00:57:16.884Z,74.5
2022-08-30T00:58:17.378Z,74.5
2022-08-30T00:59:16.852Z,74.5
2022-08-30T01:00:17.303Z,74.5
2022-08-30T01:01:16.883Z,74.5
2022-08-30T01:02:17.278Z,74.5
2022-08-30T01:03:17.168Z,74.5
2022-08-30T01:04:16.716Z,74.5
2022-08-30T01:05:17.154Z,74.5
2022-08-30T01:06:16.578Z,74.5
2022-08-30T01:07:17.014Z,74.5
2022-08-30T01:08:16.431Z,74.5
2022-08-30T01:09:16.862Z,74.4
2022-08-30T01:10:17.306Z,74.3
2022-08-30T01:11:16.768Z,74.2
2022-08-30T01:12:18.465Z,74.2
2022-08-30T01:13:17.391Z,74.2
2022-08-30T01:14:16.995Z,74.3
2022-08-30T01:15:16.956Z,74.2
2022-08-30T01:16:17.048Z,74.2
2022-08-30T01:17:18.001Z,74.2
2022-08-30T01:18:17.950Z,74.2
2022-08-30T01:19:17.438Z,74.2
2022-08-30T01:20:16.899Z,74.2
2022-08-30T01:21:17.317Z,74.2
2022-08-30T01:22:16.982Z,74.2
2022-08-30T01:23:17.945Z,74.2
2022-08-30T01:24:16.767Z,74.2
2022-08-30T01:25:17.233Z,74.1
2022-08-30T01:26:19.787Z,74.2
2022-08-30T01:27:16.428Z,74.1
2022-08-30T01:28:16.893Z,74.1
2022-08-30T01:29:17.363Z,74.2
2022-08-30T01:30:16.833Z,74.2
2022-08-30T01:31:17.379Z,74.2
2022-08-30T01:32:21.326Z,74.3
2022-08-30T01:33:17.110Z,74.2
2022-08-30T01:34:16.636Z,74.2
2022-08-30T01:35:17.065Z,74.2
2022-08-30T01:36:16.596Z,74.4
2022-08-30T01:37:17.007Z,74.5
2022-08-30T01:38:16.439Z,74.5
2022-08-30T01:39:16.914Z,74.5
2022-08-30T01:40:17.477Z,74.6
2022-08-30T01:41:17.015Z,74.3
2022-08-30T01:42:17.353Z,74.3
2022-08-30T01:43:17.205Z,74.2
2022-08-30T01:44:16.812Z,74.2
2022-08-30T01:45:17.311Z,74.1
2022-08-30T01:46:16.950Z,74.2
2022-08-30T01:47:16.416Z,74.2
2022-08-30T01:48:16.845Z,74.2
2022-08-30T01:49:23.100Z,74.2
2022-08-30T01:50:16.914Z,74.2
2022-08-30T01:51:17.353Z,74.2
2022-08-30T01:52:17.213Z,74.2
2022-08-30T01:53:17.135Z,74.2
2022-08-30T01:54:16.639Z,74.2
2022-08-30T01:55:17.096Z,74.2
2022-08-30T01:56:16.598Z,74.2
2022-08-30T01:57:17.092Z,74.1
2022-08-30T01:58:16.588Z,74.2
2022-08-30T01:59:17.060Z,74.2
2022-08-30T02:00:16.520Z,74.3
2022-08-30T02:01:17.125Z,74.4
2022-08-30T02:02:16.851Z,74.5
2022-08-30T02:03:17.665Z,74.4
2022-08-30T02:04:17.291Z,74.2
2022-08-30T02:05:16.736Z,74.3
2022-08-30T02:06:17.195Z,74.3
2022-08-30T02:07:17.254Z,74.2
2022-08-30T02:08:16.676Z,74.2
2022-08-30T02:09:17.137Z,74.2
2022-08-30T02:10:16.586Z,74.2
2022-08-30T02:11:17.028Z,74.3
2022-08-30T02:12:16.611Z,74.4
2022-08-30T02:13:17.582Z,74.3
2022-08-30T02:14:21.353Z,74.4
2022-08-30T02:15:16.855Z,74.4
2022-08-30T02:16:17.478Z,74.5
2022-08-30T02:17:16.958Z,74.5
2022-08-30T02:18:17.396Z,74.5
2022-08-30T02:19:16.808Z,74.5
2022-08-30T02:20:17.247Z,74.6
2022-08-30T02:21:16.699Z,74.6
2022-08-30T02:22:17.333Z,74.6
2022-08-30T02:23:17.092Z,74.6
2022-08-30T02:24:16.616Z,74.6
2022-08-30T02:25:21.368Z,74.5
2022-08-30T02:26:16.874Z,74.5
2022-08-30T02:27:17.330Z,74.6
2022-08-30T02:28:18.677Z,74.6
2022-08-30T02:29:16.455Z,74.6
2022-08-30T02:30:16.929Z,74.5
2022-08-30T02:31:20.915Z,74.7
2022-08-30T02:32:17.015Z,74.7
2022-08-30T02:33:16.927Z,74.6
2022-08-30T02:34:16.461Z,74.7
2022-08-30T02:35:16.919Z,74.7
2022-08-30T02:36:17.332Z,74.6
2022-08-30T02:37:16.794Z,74.6
2022-08-30T02:38:20.293Z,74.6
2022-08-30T02:39:16.747Z,74.7
2022-08-30T02:40:17.283Z,74.7
2022-08-30T02:41:16.782Z,74.7
2022-08-30T02:42:16.529Z,74.7
2022-08-30T02:43:17.232Z,74.6
2022-08-30T02:44:16.794Z,74.6
2022-08-30T02:45:19.358Z,74.5
2022-08-30T02:46:17.054Z,74.5
2022-08-30T02:47:16.529Z,74.6
2022-08-30T02:48:16.965Z,74.6
2022-08-30T02:49:33.406Z,74.7
2022-08-30T02:50:17.340Z,74.7
2022-08-30T02:51:16.780Z,74.7
2022-08-30T02:52:17.215Z,74.6
2022-08-30T02:53:17.079Z,74.6
2022-08-30T02:54:16.604Z,74.5
2022-08-30T02:55:17.053Z,74.5
2022-08-30T02:56:16.510Z,74.5
2022-08-30T02:57:20.575Z,74.5
2022-08-30T02:58:17.032Z,74.5
2022-08-30T02:59:16.500Z,74.5
2022-08-30T03:00:16.973Z,74.5
2022-08-30T03:01:17.566Z,74.6
2022-08-30T03:02:16.978Z,74.6
2022-08-30T03:03:16.842Z,74.6
2022-08-30T03:04:16.417Z,74.7
2022-08-30T03:05:16.861Z,74.5
2022-08-30T03:06:17.301Z,74.5
2022-08-30T03:07:16.748Z,74.3
2022-08-30T03:08:17.202Z,74.5
2022-08-30T03:09:16.647Z,74.6
2022-08-30T03:10:17.104Z,74.5
2022-08-30T03:11:16.561Z,74.5
2022-08-30T03:12:17.301Z,74.5
2022-08-30T03:13:17.076Z,74.5
2022-08-30T03:14:16.611Z,74.5
2022-08-30T03:15:17.052Z,74.5
2022-08-30T03:16:16.662Z,74.5
2022-08-30T03:17:17.166Z,74.6
2022-08-30T03:18:16.590Z,74.5
2022-08-30T03:19:17.015Z,74.6
2022-08-30T03:20:16.437Z,74.6
2022-08-30T03:21:16.894Z,74.7
2022-08-30T03:22:16.911Z,74.7
2022-08-30T03:23:22.123Z,74.7
2022-08-30T03:24:16.742Z,74.7
2022-08-30T03:25:17.217Z,74.6
2022-08-30T03:26:16.681Z,74.6
2022-08-30T03:27:17.138Z,74.7
2022-08-30T03:28:16.591Z,74.7
2022-08-30T03:29:17.043Z,74.7
2022-08-30T03:30:16.472Z,74.7
2022-08-30T03:31:17.069Z,74.7
2022-08-30T03:32:17.406Z,74.7
2022-08-30T03:33:20.200Z,74.8
2022-08-30T03:34:17.881Z,74.7
2022-08-30T03:35:17.325Z,74.7
2022-08-30T03:36:16.764Z,74.6
2022-08-30T03:37:17.205Z,74.6
2022-08-30T03:38:16.657Z,74.5
2022-08-30T03:39:17.076Z,74.5
2022-08-30T03:40:18.946Z,74.7
2022-08-30T03:41:16.453Z,74.7
2022-08-30T03:42:16.994Z,74.6
2022-08-30T03:43:16.700Z,74.6
2022-08-30T03:44:17.322Z,74.6
2022-08-30T03:45:16.765Z,74.5
2022-08-30T03:46:17.277Z,74.5
2022-08-30T03:47:17.198Z,74.6
2022-08-30T03:48:16.624Z,74.6
2022-08-30T03:49:17.038Z,74.7
2022-08-30T03:50:16.497Z,74.7
2022-08-30T03:51:16.905Z,74.6
2022-08-30T03:52:16.491Z,74.7
2022-08-30T03:53:17.650Z,74.7
2022-08-30T03:54:17.176Z,74.5
2022-08-30T03:55:16.614Z,74.3
2022-08-30T03:56:17.059Z,74.4
2022-08-30T03:57:24.280Z,74.5
2022-08-30T03:58:19.474Z,74.5
2022-08-30T03:59:16.971Z,74.5
2022-08-30T04:00:17.420Z,74.6
2022-08-30T04:01:17.036Z,74.5
2022-08-30T04:02:17.371Z,74.6
2022-08-30T04:03:17.184Z,74.5
2022-08-30T04:04:21.240Z,74.7
2022-08-30T04:05:18.868Z,74.6
2022-08-30T04:06:17.335Z,74.5
2022-08-30T04:07:16.787Z,74.5
2022-08-30T04:08:17.391Z,74.6
2022-08-30T04:09:16.845Z,74.6
2022-08-30T04:10:17.318Z,74.6
2022-08-30T04:11:16.788Z,74.7
2022-08-30T04:12:23.047Z,74.7
2022-08-30T04:13:16.818Z,74.7
2022-08-30T04:14:17.315Z,74.7
2022-08-30T04:15:16.735Z,74.5
2022-08-30T04:16:17.315Z,74.6
2022-08-30T04:17:16.747Z,74.6
2022-08-30T04:18:17.174Z,74.7
2022-08-30T04:19:16.591Z,74.8
2022-08-30T04:20:17.016Z,74.7
2022-08-30T04:21:16.462Z,74.7
2022-08-30T04:22:17.052Z,74.7
2022-08-30T04:23:16.856Z,74.6
2022-08-30T04:24:17.433Z,74.7
2022-08-30T04:25:16.902Z,74.7
2022-08-30T04:26:17.369Z,74.7
2022-08-30T04:27:16.832Z,74.6
2022-08-30T04:28:17.295Z,74.7
2022-08-30T04:29:16.714Z,74.7
2022-08-30T04:30:17.151Z,74.8
2022-08-30T04:31:16.691Z,74.8
2022-08-30T04:32:17.004Z,74.8
2022-08-30T04:33:16.827Z,74.8
2022-08-30T04:34:16.432Z,74.9
2022-08-30T04:35:16.851Z,74.9
2022-08-30T04:36:17.266Z,74.8
2022-08-30T04:37:16.730Z,74.8
2022-08-30T04:38:17.240Z,74.9
2022-08-30T04:39:16.707Z,74.8
2022-08-30T04:40:17.300Z,74.8
2022-08-30T04:41:16.786Z,74.8
2022-08-30T04:42:17.307Z,74.8
2022-08-30T04:43:17.228Z,74.8
2022-08-30T04:44:19.870Z,74.7
2022-08-30T04:45:17.317Z,74.7
2022-08-30T04:46:16.869Z,74.6
2022-08-30T04:47:17.334Z,74.6
2022-08-30T04:48:16.763Z,74.5
2022-08-30T04:49:17.189Z,74.5
2022-08-30T04:50:17.010Z,74.5
2022-08-30T04:51:16.471Z,74.5
2022-08-30T04:52:16.523Z,74.5
2022-08-30T04:53:17.523Z,74.3
2022-08-30T04:54:17.135Z,74.2
2022-08-30T04:55:20.573Z,74.2
2022-08-30T04:56:17.055Z,74.3
2022-08-30T04:57:16.508Z,74.2
2022-08-30T04:58:16.965Z,74.1
2022-08-30T04:59:17.402Z,74.1
2022-08-30T05:00:16.832Z,74.1
2022-08-30T05:01:20.242Z,74.0
2022-08-30T05:02:17.071Z,74.0
2022-08-30T05:03:16.812Z,74.0
2022-08-30T05:04:17.331Z,74.0
2022-08-30T05:05:16.743Z,74.1
2022-08-30T05:06:17.207Z,74.0
2022-08-30T05:07:16.664Z,74.0
2022-08-30T05:08:17.143Z,73.9
2022-08-30T05:09:16.604Z,73.8
2022-08-30T05:10:17.060Z,73.8
2022-08-30T05:11:16.559Z,73.8
2022-08-30T05:12:17.208Z,73.7
2022-08-30T05:13:17.054Z,73.7
2022-08-30T05:14:16.587Z,73.7
2022-08-30T05:15:17.007Z,73.7
2022-08-30T05:16:16.517Z,73.5
2022-08-30T05:17:17.015Z,73.4
2022-08-30T05:18:16.426Z,73.4
2022-08-30T05:19:16.851Z,73.3
2022-08-30T05:20:17.263Z,73.3
2022-08-30T05:21:16.749Z,73.3
2022-08-30T05:22:16.959Z,73.2
2022-08-30T05:23:17.904Z,73.2
2022-08-30T05:24:16.547Z,73.1
2022-08-30T05:25:17.000Z,73.0
2022-08-30T05:26:16.467Z,73.1
2022-08-30T05:27:16.906Z,73.3
2022-08-30T05:28:17.524Z,73.3
2022-08-30T05:29:17.033Z,73.2
2022-08-30T05:30:16.459Z,73.0
2022-08-30T05:31:17.035Z,72.8
2022-08-30T05:32:17.354Z,72.8
2022-08-30T05:33:16.766Z,72.8
2022-08-30T05:34:17.199Z,72.7
2022-08-30T05:35:16.636Z,72.7
2022-08-30T05:36:17.097Z,72.8
2022-08-30T05:37:16.564Z,72.8
2022-08-30T05:38:17.457Z,72.9
2022-08-30T05:39:21.227Z,72.8
2022-08-30T05:40:16.643Z,72.9
2022-08-30T05:41:17.349Z,73.0
2022-08-30T05:42:17.079Z,73.0
2022-08-30T05:43:16.522Z,72.9
2022-08-30T05:44:16.952Z,72.9
2022-08-30T05:45:17.390Z,72.8
2022-08-30T05:46:17.071Z,72.8
2022-08-30T05:47:16.585Z,72.9
2022-08-30T05:48:17.359Z,73.0
2022-08-30T05:49:16.929Z,73.0
2022-08-30T05:50:17.374Z,73.0
2022-08-30T05:51:16.808Z,73.0
2022-08-30T05:52:16.508Z,72.8
2022-08-30T05:53:16.949Z,72.7
2022-08-30T05:54:17.412Z,72.7
2022-08-30T05:55:16.873Z,72.6
2022-08-30T05:56:17.320Z,72.6
2022-08-30T05:57:16.766Z,72.5
2022-08-30T05:58:17.552Z,72.3
2022-08-30T05:59:17.108Z,72.3
2022-08-30T06:00:16.579Z,72.3
2022-08-30T06:01:16.988Z,72.3
2022-08-30T06:02:17.477Z,72.2
2022-08-30T06:03:17.035Z,72.1
2022-08-30T06:04:16.521Z,72.1
2022-08-30T06:05:16.972Z,71.8
2022-08-30T06:06:16.435Z,71.8
2022-08-30T06:07:21.191Z,71.8
2022-08-30T06:08:17.853Z,71.3
2022-08-30T06:09:16.457Z,71.3
2022-08-30T06:10:17.464Z,71.3
2022-08-30T06:11:16.926Z,71.3
2022-08-30T06:12:17.176Z,71.1
2022-08-30T06:13:16.605Z,71.1
2022-08-30T06:14:17.050Z,70.9
2022-08-30T06:15:16.484Z,70.8
2022-08-30T06:16:17.025Z,70.8
2022-08-30T06:17:16.581Z,70.6
2022-08-30T06:18:19.828Z,70.4
2022-08-30T06:19:16.851Z,70.2
2022-08-30T06:20:17.310Z,70.2
2022-08-30T06:21:16.775Z,70.0
2022-08-30T06:22:16.582Z,69.8
2022-08-30T06:23:17.030Z,69.8
2022-08-30T06:24:16.486Z,69.7
2022-08-30T06:25:16.909Z,69.6
2022-08-30T06:26:17.321Z,69.3
2022-08-30T06:27:16.748Z,69.2
2022-08-30T06:28:17.514Z,69.2
2022-08-30T06:29:17.062Z,69.1
2022-08-30T06:30:19.051Z,69.0
2022-08-30T06:31:16.974Z,68.7
2022-08-30T06:32:16.673Z,68.8
2022-08-30T06:33:17.119Z,68.2
2022-08-30T06:34:16.579Z,68.2
2022-08-30T06:35:17.068Z,68.2
2022-08-30T06:36:16.535Z,68.1
2022-08-30T06:37:29.244Z,68.0
2022-08-30T06:38:16.746Z,68.0
2022-08-30T06:39:17.250Z,67.8
2022-08-30T06:40:16.757Z,67.7
2022-08-30T06:41:17.259Z,67.8
2022-08-30T06:42:16.711Z,67.8
2022-08-30T06:43:17.143Z,67.7
2022-08-30T06:44:16.567Z,67.3
2022-08-30T06:45:17.237Z,67.2
2022-08-30T06:46:16.791Z,67.3
2022-08-30T06:47:17.253Z,67.2
2022-08-30T06:48:16.955Z,66.9
2022-08-30T06:49:16.521Z,66.3
2022-08-30T06:50:17.711Z,66.2
2022-08-30T06:51:16.511Z,66.0
2022-08-30T06:52:19.284Z,65.8
2022-08-30T06:53:17.798Z,65.5
2022-08-30T06:54:17.252Z,65.4
2022-08-30T06:55:16.669Z,65.4
2022-08-30T06:56:17.139Z,65.7
2022-08-30T06:57:16.585Z,65.3
2022-08-30T06:58:18.539Z,65.1
2022-08-30T06:59:17.033Z,64.8
2022-08-30T07:00:16.481Z,64.5
2022-08-30T07:01:16.912Z,64.5
2022-08-30T07:02:16.596Z,65.0
2022-08-30T07:03:17.258Z,65.4
2022-08-30T07:04:16.742Z,65.5
2022-08-30T07:05:19.159Z,65.0
2022-08-30T07:06:18.990Z,64.3
2022-08-30T07:07:16.483Z,64.3
2022-08-30T07:08:17.214Z,64.0
2022-08-30T07:09:16.872Z,63.5
2022-08-30T07:10:17.304Z,63.2
2022-08-30T07:11:16.735Z,63.3
2022-08-30T07:12:16.583Z,63.1
2022-08-30T07:13:17.384Z,62.8
2022-08-30T07:14:16.900Z,62.8
2022-08-30T07:15:17.348Z,62.7
2022-08-30T07:16:16.868Z,62.7
2022-08-30T07:17:17.367Z,62.5
2022-08-30T07:18:16.841Z,62.8
2022-08-30T07:19:21.575Z,63.0
2022-08-30T07:20:17.072Z,63.0
2022-08-30T07:21:16.550Z,62.2
2022-08-30T07:22:16.918Z,62.0
2022-08-30T07:23:17.794Z,61.6
2022-08-30T07:24:17.324Z,61.5
2022-08-30T07:25:20.195Z,61.6
2022-08-30T07:26:16.721Z,61.2
2022-08-30T07:27:17.141Z,61.1
2022-08-30T07:28:16.564Z,60.8
2022-08-30T07:29:16.995Z,60.5
2022-08-30T07:30:16.418Z,60.2
2022-08-30T07:31:20.036Z,60.2
2022-08-30T07:32:17.476Z,60.0
2022-08-30T07:33:17.308Z,60.2
2022-08-30T07:34:16.826Z,60.0
2022-08-30T07:35:17.293Z,59.3
2022-08-30T07:36:16.735Z,59.0
2022-08-30T07:37:18.351Z,58.5
2022-08-30T07:38:16.792Z,58.4
2022-08-30T07:39:17.229Z,58.5
2022-08-30T07:40:16.879Z,58.5
2022-08-30T07:41:17.362Z,58.0
2022-08-30T07:42:16.787Z,58.0
2022-08-30T07:43:17.821Z,57.3
2022-08-30T07:44:17.375Z,57.0
2022-08-30T07:45:16.798Z,56.8
2022-08-30T07:46:17.405Z,57.2
2022-08-30T07:47:16.918Z,57.5
2022-08-30T07:48:17.411Z,57.3
2022-08-30T07:49:16.862Z,57.0
2022-08-30T07:50:17.334Z,56.8
2022-08-30T07:51:16.788Z,56.7
2022-08-30T07:52:17.118Z,56.3
2022-08-30T07:53:16.806Z,56.3
2022-08-30T07:54:17.326Z,56.0
2022-08-30T07:55:16.853Z,56.5
2022-08-30T07:56:17.291Z,56.9
2022-08-30T07:57:16.743Z,57.1
2022-08-30T07:58:17.619Z,57.0
2022-08-30T07:59:17.186Z,56.0
2022-08-30T08:00:16.620Z,56.5
2022-08-30T08:01:17.307Z,56.9
2022-08-30T08:02:16.682Z,56.4
2022-08-30T08:03:17.177Z,56.1
2022-08-30T08:04:16.664Z,56.0
2022-08-30T08:05:20.147Z,56.2
2022-08-30T08:06:16.467Z,56.8
2022-08-30T08:07:16.931Z,57.7
2022-08-30T08:08:17.703Z,59.0
2022-08-30T08:09:17.178Z,58.5
2022-08-30T08:10:16.608Z,57.9
2022-08-30T08:11:17.037Z,58.0
2022-08-30T08:12:16.873Z,57.4
2022-08-30T08:13:17.360Z,56.7
2022-08-30T08:14:16.828Z,56.0
2022-08-30T08:15:17.304Z,56.0
2022-08-30T08:16:17.602Z,55.5
2022-08-30T08:17:17.114Z,55.1
2022-08-30T08:18:16.831Z,55.5
2022-08-30T08:19:17.321Z,56.8
2022-08-30T08:20:16.787Z,57.1
2022-08-30T08:21:17.231Z,56.8
2022-08-30T08:22:21.991Z,56.7
2022-08-30T08:23:16.468Z,56.0
2022-08-30T08:24:16.879Z,55.4
2022-08-30T08:25:17.303Z,54.8
2022-08-30T08:26:16.719Z,54.6
2022-08-30T08:27:17.132Z,54.8
2022-08-30T08:28:16.869Z,54.5
2022-08-30T08:29:17.375Z,55.2
2022-08-30T08:30:16.853Z,55.8
2022-08-30T08:31:17.492Z,55.8
2022-08-30T08:32:17.019Z,55.5
2022-08-30T08:33:16.507Z,54.3
2022-08-30T08:34:16.986Z,53.9
2022-08-30T08:35:16.439Z,51.8
2022-08-30T08:36:16.891Z,51.1
2022-08-30T08:37:20.967Z,50.4
2022-08-30T08:38:17.532Z,50.4
2022-08-30T08:39:17.023Z,50.1
2022-08-30T08:40:16.623Z,51.5
2022-08-30T08:41:17.116Z,52.6
2022-08-30T08:42:16.634Z,53.0
2022-08-30T08:43:17.052Z,53.0
2022-08-30T08:44:16.463Z,51.7
2022-08-30T08:45:17.317Z,50.4
2022-08-30T08:46:16.857Z,50.4
2022-08-30T08:47:17.538Z,49.1
2022-08-30T08:48:17.454Z,50.1
2022-08-30T08:49:17.024Z,51.9
2022-08-30T08:50:18.823Z,51.8
2022-08-30T08:51:17.281Z,50.0
2022-08-30T08:52:17.375Z,48.6
2022-08-30T08:53:45.729Z,48.5
2022-08-30T08:54:17.279Z,48.3
2022-08-30T08:55:16.722Z,48.2
2022-08-30T08:56:17.192Z,47.7
2022-08-30T08:57:21.447Z,49.8
2022-08-30T08:58:16.759Z,50.2
2022-08-30T08:59:17.236Z,49.7
2022-08-30T09:00:16.678Z,48.9
2022-08-30T09:01:17.264Z,47.3
2022-08-30T09:02:16.960Z,46.5
2022-08-30T09:03:17.438Z,45.2
2022-08-30T09:04:20.768Z,46.8
2022-08-30T09:05:17.316Z,48.8
2022-08-30T09:06:16.787Z,48.2
2022-08-30T09:07:17.243Z,46.4
2022-08-30T09:08:16.717Z,46.0
2022-08-30T09:09:17.193Z,45.2
2022-08-30T09:10:34.959Z,45.6
2022-08-30T09:11:16.567Z,45.4
2022-08-30T09:12:17.313Z,45.5
2022-08-30T09:13:19.612Z,45.3
2022-08-30T09:14:16.421Z,46.3
2022-08-30T09:15:17.271Z,45.9
2022-08-30T09:16:22.737Z,45.6
2022-08-30T09:17:16.823Z,44.8
2022-08-30T09:18:20.124Z,44.6
2022-08-30T09:19:16.647Z,44.1
2022-08-30T09:20:17.220Z,44.7
2022-08-30T09:21:16.732Z,45.5
2022-08-30T09:22:17.240Z,45.3
2022-08-30T09:23:17.620Z,43.6
2022-08-30T09:24:26.302Z,44.2
2022-08-30T09:25:16.752Z,44.3
2022-08-30T09:26:17.204Z,44.7
2022-08-30T09:27:23.970Z,45.8
2022-08-30T09:28:16.922Z,43.7
2022-08-30T09:29:16.799Z,43.3
2022-08-30T09:30:17.916Z,44.0
2022-08-30T09:31:17.590Z,45.9
2022-08-30T09:32:25.883Z,45.8
2022-08-30T09:33:17.651Z,46.6
2022-08-30T09:34:17.126Z,47.1
2022-08-30T09:35:16.578Z,45.3
2022-08-30T09:36:17.034Z,45.6
2022-08-30T09:37:16.492Z,46.3
2022-08-30T09:38:17.775Z,47.4
2022-08-30T09:39:17.346Z,46.5
2022-08-30T09:40:18.286Z,45.1
2022-08-30T09:41:19.082Z,43.7
2022-08-30T09:42:16.884Z,43.7
2022-08-30T09:43:17.723Z,42.7
2022-08-30T09:44:17.154Z,43.6
2022-08-30T09:45:16.793Z,43.0
2022-08-30T09:46:17.273Z,43.8
2022-08-30T09:47:23.993Z,44.0
2022-08-30T09:48:16.878Z,43.8
2022-08-30T09:49:17.410Z,44.4
2022-08-30T09:50:16.843Z,43.9
2022-08-30T09:51:17.263Z,43.7
2022-08-30T09:52:17.057Z,43.6
2022-08-30T09:53:23.886Z,42.8
2022-08-30T09:54:18.925Z,43.0
2022-08-30T09:55:16.487Z,43.6
2022-08-30T09:56:16.958Z,43.1
2022-08-30T09:57:16.460Z,42.5
2022-08-30T09:58:19.434Z,42.2
2022-08-30T09:59:17.469Z,42.3
2022-08-30T10:00:17.022Z,41.4
2022-08-30T10:01:16.604Z,43.4
2022-08-30T10:02:17.041Z,45.3
2022-08-30T10:03:36.064Z,46.8
2022-08-30T10:04:16.681Z,48.4
2022-08-30T10:05:17.268Z,49.6
2022-08-30T10:06:16.685Z,48.0
2022-08-30T10:07:18.753Z,46.0
2022-08-30T10:08:17.197Z,44.5
2022-08-30T10:09:16.843Z,43.9
2022-08-30T10:10:17.308Z,44.6
2022-08-30T10:11:16.780Z,44.6
2022-08-30T10:12:18.042Z,44.4
2022-08-30T10:13:16.771Z,44.4
2022-08-30T10:14:17.328Z,43.6
2022-08-30T10:15:16.773Z,45.0
2022-08-30T10:16:20.240Z,44.8
2022-08-30T10:17:16.683Z,44.3
2022-08-30T10:18:17.920Z,44.2
2022-08-30T10:19:16.441Z,45.5
2022-08-30T10:20:17.059Z,48.5
2022-08-30T10:21:19.576Z,48.8
2022-08-30T10:22:17.396Z,48.7
2022-08-30T10:23:17.191Z,47.3
2022-08-30T10:24:21.362Z,47.6
2022-08-30T10:25:16.825Z,44.8
2022-08-30T10:26:19.611Z,44.2
2022-08-30T10:27:17.868Z,43.7
2022-08-30T10:28:19.246Z,43.9
2022-08-30T10:29:16.750Z,43.6
2022-08-30T10:30:17.230Z,43.6
2022-08-30T10:31:17.293Z,43.5
2022-08-30T10:32:16.415Z,43.4
2022-08-30T10:33:17.461Z,43.1
2022-08-30T10:34:17.982Z,42.7
2022-08-30T10:35:19.788Z,41.9
2022-08-30T10:36:18.408Z,42.1
2022-08-30T10:37:16.896Z,41.5
2022-08-30T10:38:17.347Z,41.4
2022-08-30T10:39:16.819Z,41.0
2022-08-30T10:40:17.718Z,42.5
2022-08-30T10:41:17.441Z,42.1
2022-08-30T10:42:18.017Z,41.8
2022-08-30T10:43:16.824Z,40.7
2022-08-30T10:44:17.315Z,39.2
2022-08-30T10:45:16.797Z,39.2
2022-08-30T10:46:19.480Z,39.0
2022-08-30T10:47:23.847Z,39.7
2022-08-30T10:48:19.420Z,39.4
2022-08-30T10:49:16.858Z,39.7
2022-08-30T10:50:18.824Z,39.9
2022-08-30T10:51:16.667Z,41.6
2022-08-30T10:52:17.360Z,41.8
2022-08-30T10:53:17.050Z,41.4
2022-08-30T10:54:18.964Z,40.4
2022-08-30T10:55:17.406Z,39.9
2022-08-30T10:56:16.863Z,39.0
2022-08-30T10:57:17.333Z,37.9
2022-08-30T10:58:16.794Z,38.3
2022-08-30T10:59:18.239Z,39.6
2022-08-30T11:00:16.863Z,40.2
2022-08-30T11:01:17.008Z,40.0
2022-08-30T11:02:16.737Z,41.1
2022-08-30T11:03:17.502Z,39.4
2022-08-30T11:04:17.847Z,40.2
2022-08-30T11:05:17.268Z,40.6
2022-08-30T11:06:17.086Z,40.6
2022-08-30T11:07:16.497Z,40.5
2022-08-30T11:08:23.021Z,40.2
2022-08-30T11:09:16.578Z,40.4
2022-08-30T11:10:17.037Z,40.8
2022-08-30T11:11:16.492Z,40.1
2022-08-30T11:12:18.298Z,39.2
2022-08-30T11:13:16.974Z,38.4
2022-08-30T11:14:17.140Z,37.0
2022-08-30T11:15:17.643Z,35.9
2022-08-30T11:16:17.071Z,36.8
2022-08-30T11:17:16.521Z,37.7
2022-08-30T11:18:20.258Z,35.9
2022-08-30T11:19:19.056Z,37.0
2022-08-30T11:20:17.091Z,36.0
2022-08-30T11:21:16.544Z,36.0
2022-08-30T11:22:17.195Z,35.0
2022-08-30T11:23:16.997Z,36.9
2022-08-30T11:24:16.589Z,36.5
2022-08-30T11:25:18.518Z,36.9
2022-08-30T11:26:20.790Z,37.5
2022-08-30T11:27:18.581Z,37.0
2022-08-30T11:28:22.142Z,36.9
2022-08-30T11:29:17.008Z,37.8
2022-08-30T11:30:20.104Z,38.1
2022-08-30T11:31:16.764Z,38.2
2022-08-30T11:32:17.544Z,38.9
2022-08-30T11:33:18.763Z,38.6
2022-08-30T11:34:17.410Z,38.6
2022-08-30T11:35:18.175Z,38.6
2022-08-30T11:36:16.803Z,38.1
2022-08-30T11:37:17.328Z,37.6
2022-08-30T11:38:16.978Z,38.0
2022-08-30T11:39:16.492Z,39.3
2022-08-30T11:40:17.497Z,39.3
2022-08-30T11:41:16.450Z,39.0
2022-08-30T11:42:17.182Z,40.0
2022-08-30T11:43:16.983Z,39.8
2022-08-30T11:44:16.462Z,39.9
2022-08-30T11:45:17.114Z,39.8
2022-08-30T11:46:17.422Z,39.2
2022-08-30T11:47:16.903Z,39.2
2022-08-30T11:48:16.703Z,38.1
2022-08-30T11:49:17.123Z,39.4
2022-08-30T11:50:19.431Z,39.3
2022-08-30T11:51:17.265Z,39.5
2022-08-30T11:52:28.805Z,40.3
2022-08-30T11:53:18.768Z,40.3
2022-08-30T11:54:17.226Z,39.4
2022-08-30T11:55:17.698Z,41.6
2022-08-30T11:56:16.704Z,42.2
2022-08-30T11:57:17.143Z,43.1
2022-08-30T11:58:16.887Z,44.0
2022-08-30T11:59:18.293Z,44.3
2022-08-30T12:00:16.957Z,44.9
2022-08-30T12:01:42.154Z,45.3
2022-08-30T12:02:17.046Z,45.1
2022-08-30T12:03:16.826Z,45.3
2022-08-30T12:04:17.011Z,45.4
2022-08-30T12:05:17.752Z,45.3
2022-08-30T12:06:19.148Z,45.2
2022-08-30T12:07:18.298Z,45.3
2022-08-30T12:08:18.345Z,45.2
2022-08-30T12:09:17.016Z,45.9
2022-08-30T12:10:16.582Z,46.0
2022-08-30T12:11:17.894Z,45.8
2022-08-30T12:12:16.489Z,46.1
2022-08-30T12:13:17.403Z,46.2
2022-08-30T12:14:17.546Z,46.5
2022-08-30T12:15:16.963Z,46.6
2022-08-30T12:16:17.499Z,47.2
2022-08-30T12:17:16.983Z,46.8
2022-08-30T12:18:17.445Z,46.8
2022-08-30T12:19:18.785Z,47.3
2022-08-30T12:20:17.212Z,47.1
2022-08-30T12:21:18.269Z,45.5
2022-08-30T12:22:17.402Z,45.9
2022-08-30T12:23:17.872Z,45.8
2022-08-30T12:24:17.332Z,46.3
2022-08-30T12:25:16.870Z,46.6
2022-08-30T12:26:20.327Z,47.0
2022-08-30T12:27:16.792Z,46.5
2022-08-30T12:28:17.490Z,46.9
2022-08-30T12:29:17.418Z,47.2
2022-08-30T12:30:17.275Z,47.0
2022-08-30T12:31:16.697Z,46.6
2022-08-30T12:32:17.338Z,46.9
2022-08-30T12:33:17.425Z,46.9
2022-08-30T12:34:19.353Z,46.8
2022-08-30T12:35:16.842Z,46.9
2022-08-30T12:36:18.247Z,47.3
2022-08-30T12:37:19.777Z,46.7
2022-08-30T12:38:16.947Z,46.9
2022-08-30T12:39:16.439Z,47.3
2022-08-30T12:40:17.294Z,47.3
2022-08-30T12:41:16.781Z,47.2
2022-08-30T12:42:18.080Z,46.7
2022-08-30T12:43:16.978Z,47.6
2022-08-30T12:44:17.372Z,46.9
2022-08-30T12:45:16.806Z,46.8
2022-08-30T12:46:17.373Z,47.3
2022-08-30T12:47:16.855Z,46.9
2022-08-30T12:48:19.920Z,46.9
2022-08-30T12:49:16.433Z,46.7
2022-08-30T12:50:16.970Z,47.1
2022-08-30T12:51:17.405Z,46.6
2022-08-30T12:52:17.140Z,47.1
2022-08-30T12:53:16.595Z,46.7
2022-08-30T12:54:17.041Z,46.2
2022-08-30T12:55:19.588Z,46.9
2022-08-30T12:56:30.520Z,47.1
2022-08-30T12:57:35.090Z,47.3
2022-08-30T12:58:17.288Z,47.4
2022-08-30T12:59:16.562Z,47.0
2022-08-30T13:00:16.869Z,47.4
2022-08-30T13:01:18.737Z,47.5
2022-08-30T13:02:21.315Z,46.7
2022-08-30T13:03:20.847Z,47.7
2022-08-30T13:04:16.637Z,47.1
2022-08-30T13:05:17.127Z,47.4
2022-08-30T13:06:16.609Z,46.8
2022-08-30T13:07:17.449Z,46.8
2022-08-30T13:08:18.615Z,46.2
2022-08-30T13:09:17.319Z,45.4
2022-08-30T13:10:19.857Z,45.9
2022-08-30T13:11:16.452Z,45.8
2022-08-30T13:12:16.715Z,46.8
2022-08-30T13:13:17.612Z,47.0
2022-08-30T13:14:17.127Z,47.3
2022-08-30T13:15:17.903Z,47.1
2022-08-30T13:16:18.218Z,46.7
2022-08-30T13:17:16.694Z,46.6
2022-08-30T13:18:26.697Z,47.0